Terminal Aerodrome Forecast
Issued by NWS

Home | Current Version | Previous Version | Graphics & Text | Print | Product List | Glossary On
Versions: 1 2 3 4 5 6 7 8 9 10 11 12 13 14 15 16 17 18 19 20 21 22
000
FTUS43 KICT 242130 AAA
TAFRSL
TAF AMD
KRSL 242130Z 2422/2518 12013G19KT P6SM VCTS SCT015 BKN030CB
      TEMPO 2422/2502 3SM TSRA BKN025CB
     FM250300 28007KT P6SM BKN100=

USA.gov is the U.S. government's official web portal to all federal, state and local government web resources and services.